Time;durP1;ratioP1;P1;durP2;ratioP2;P2;SDS_P1;SDS_P2;PMS_P1;PMS_P2;Temp;Humidity;BMP_temperature;BMP_pressure;BME280_temperature;BME280_humidity;BME280_pressure;Samples;Min_cycle;Max_cycle;Signal;HPM_P1;HPM_P2
2021/06/22 00:01:22;;;;;;;7.18;3.80;;;16.80;99.90;;;15.86;96.08;100742.88;4138290;28;20498;-67
2021/06/22 00:03:23;;;;;;;10.68;4.00;;;16.70;99.90;;;15.87;96.73;100727.75;4138320;28;20034;-67
2021/06/22 00:05:26;;;;;;;10.82;4.28;;;16.60;99.90;;;15.90;95.64;100732.69;4137075;28;20035;-67
2021/06/22 00:07:27;;;;;;;9.95;4.07;;;16.60;99.90;;;16.07;96.07;100739.38;4137215;28;20037;-67
2021/06/22 00:09:28;;;;;;;10.63;4.05;;;16.60;99.90;;;16.10;95.11;100741.66;4136768;28;20486;-67
2021/06/22 00:11:29;;;;;;;12.88;4.30;;;16.60;99.90;;;16.21;94.69;100743.00;4138130;28;20042;-67
2021/06/22 00:13:29;;;;;;;12.80;4.78;;;16.60;99.90;;;15.94;95.78;100745.44;4138001;28;20081;-67
2021/06/22 00:15:31;;;;;;;9.40;4.18;;;16.60;99.90;;;15.97;95.68;100733.59;4138198;28;20486;-67
2021/06/22 00:17:32;;;;;;;12.50;4.15;;;16.60;99.90;;;16.10;95.32;100735.56;4138130;28;20062;-67
2021/06/22 00:19:33;;;;;;;10.23;4.57;;;16.60;99.90;;;16.15;95.36;100746.44;4138060;28;20053;-67
2021/06/22 00:21:34;;;;;;;8.30;3.60;;;16.60;99.90;;;16.22;96.04;100748.13;4136824;28;20030;-67
2021/06/22 00:23:35;;;;;;;13.65;4.20;;;16.60;99.90;;;16.14;95.35;100753.59;4138018;28;20069;-67
2021/06/22 00:25:35;;;;;;;11.50;3.63;;;16.60;99.90;;;16.25;94.73;100753.06;4169061;28;20029;-67
2021/06/22 00:27:37;;;;;;;12.68;3.50;;;16.60;99.90;;;16.26;95.24;100762.69;4137931;28;20076;-67
2021/06/22 00:29:39;;;;;;;9.82;3.67;;;16.60;99.90;;;16.16;94.89;100759.53;4137796;28;20033;-67
2021/06/22 00:31:40;;;;;;;5.38;3.17;;;16.70;99.90;;;16.18;96.04;100754.88;4152740;28;20480;-67
2021/06/22 00:33:41;;;;;;;11.45;4.45;;;16.60;99.90;;;16.20;96.18;100749.34;4137824;28;20082;-67
2021/06/22 00:35:42;;;;;;;8.70;3.85;;;16.60;99.90;;;16.17;96.85;100750.53;4137735;28;20069;-67
2021/06/22 00:37:44;;;;;;;11.25;4.15;;;16.60;99.90;;;16.20;97.80;100744.84;4136381;28;20092;-67
2021/06/22 00:39:46;;;;;;;9.98;4.05;;;16.50;99.90;;;16.30;96.80;100760.47;4135932;28;20047;-67
2021/06/22 00:41:46;;;;;;;6.95;4.18;;;16.50;99.90;;;16.19;95.88;100755.69;4136521;28;20530;-67
2021/06/22 00:43:48;;;;;;;11.95;4.38;;;16.60;99.90;;;16.21;95.31;100751.81;4137454;28;20027;-67
2021/06/22 00:45:48;;;;;;;13.43;4.50;;;16.50;99.90;;;16.27;96.44;100760.88;4137539;28;20437;-67
2021/06/22 00:47:49;;;;;;;10.82;4.10;;;16.50;99.90;;;16.24;95.13;100745.28;4136366;28;20077;-67
2021/06/22 00:49:51;;;;;;;7.28;4.35;;;16.50;99.90;;;16.21;95.15;100751.81;4137542;28;20027;-67
2021/06/22 00:51:52;;;;;;;8.30;3.65;;;16.60;99.90;;;16.20;96.60;100758.16;4136192;28;20486;-67
2021/06/22 00:53:55;;;;;;;13.13;4.20;;;16.50;99.90;;;16.18;96.18;100746.88;4137365;28;20027;-67
2021/06/22 00:55:57;;;;;;;11.25;4.10;;;16.50;99.90;;;16.28;96.24;100754.50;4135875;28;20046;-67
2021/06/22 00:58:08;;;;;;;12.60;5.05;;;16.50;99.90;;;16.27;94.92;100756.38;4137352;28;20081;-67
2021/06/22 01:00:11;;;;;;;11.57;4.07;;;16.50;99.90;;;16.27;95.65;100758.22;4137359;28;20066;-67
2021/06/22 01:02:12;;;;;;;10.77;3.58;;;16.50;99.90;;;16.24;94.53;100758.59;4137139;28;20041;-67
2021/06/22 01:04:13;;;;;;;10.55;3.53;;;16.60;99.90;;;16.19;94.32;100761.81;4137361;28;20069;-67
2021/06/22 01:06:14;;;;;;;7.72;4.30;;;16.60;99.90;;;16.21;94.82;100762.47;4137303;28;20029;-67
2021/06/22 01:08:16;;;;;;;9.88;5.05;;;16.60;99.90;;;16.13;95.76;100759.13;4137216;28;20060;-67
2021/06/22 01:10:17;;;;;;;10.32;3.95;;;16.50;99.90;;;16.10;96.80;100757.63;4135602;28;20076;-67
2021/06/22 01:12:18;;;;;;;16.45;4.95;;;16.50;99.90;;;16.13;94.75;100748.47;4135718;28;20038;-67
2021/06/22 01:14:19;;;;;;;12.13;4.40;;;16.50;99.90;;;16.16;96.57;100759.53;4135998;28;20139;-67
2021/06/22 01:16:26;;;;;;;15.32;4.47;;;16.50;99.90;;;16.07;97.66;100750.03;4136033;28;20030;-67
2021/06/22 01:18:27;;;;;;;10.23;4.65;;;16.50;99.90;;;16.07;98.91;100751.91;4136006;28;20064;-67
2021/06/22 01:20:31;;;;;;;14.88;5.13;;;16.40;99.90;;;16.10;96.46;100754.19;4137119;28;20486;-67
2021/06/22 01:22:32;;;;;;;12.77;4.93;;;16.40;99.90;;;16.12;96.14;100754.81;4137083;28;20090;-67
2021/06/22 01:24:34;;;;;;;13.90;5.25;;;16.50;99.90;;;15.99;96.65;100748.34;4136527;28;20034;-67
2021/06/22 01:26:44;;;;;;;13.52;4.93;;;16.40;99.90;;;16.02;97.41;100752.47;4168330;28;20068;-67
2021/06/22 01:28:45;;;;;;;13.07;5.05;;;16.40;99.90;;;15.80;97.52;100756.94;4136761;28;20081;-67
2021/06/22 01:30:46;;;;;;;8.75;4.65;;;16.40;99.90;;;15.80;98.05;100748.16;4136788;28;20027;-67
2021/06/22 01:32:47;;;;;;;11.65;4.82;;;16.40;99.90;;;15.81;97.79;100745.31;4136531;28;20037;-67
2021/06/22 01:34:48;;;;;;;13.43;5.00;;;16.30;99.90;;;15.77;97.80;100759.19;4136699;28;20473;-67
2021/06/22 01:36:49;;;;;;;11.43;5.75;;;16.30;99.90;;;15.61;98.95;100754.91;4136827;28;20030;-67
2021/06/22 01:38:50;;;;;;;14.85;5.70;;;16.30;99.90;;;15.64;99.31;100753.72;4151574;28;20281;-67
2021/06/22 01:40:52;;;;;;;17.80;6.45;;;16.20;99.90;;;15.67;99.48;100756.00;4136330;28;20513;-67
2021/06/22 01:43:01;;;;;;;14.45;6.80;;;16.20;99.90;;;15.76;98.85;100763.69;4135302;28;20022;-67
2021/06/22 01:45:02;;;;;;;10.05;5.60;;;16.20;99.90;;;15.73;99.00;100761.41;4136677;28;20033;-67
2021/06/22 01:47:05;;;;;;;16.20;6.50;;;16.20;99.90;;;15.63;98.96;100752.06;4136587;28;20076;-67
2021/06/22 01:49:06;;;;;;;12.00;5.97;;;16.20;99.90;;;15.66;99.98;100751.69;4135266;28;20398;-67
2021/06/22 01:51:07;;;;;;;16.10;6.25;;;16.20;99.90;;;15.79;99.64;100757.16;4136235;28;20113;-67
2021/06/22 01:53:08;;;;;;;17.70;6.72;;;16.20;99.90;;;15.77;99.53;100759.97;4136902;28;20056;-67
2021/06/22 01:57:30;;;;;;;16.17;7.03;;;16.20;99.90;;;15.91;99.00;100760.97;4135408;28;20041;-67
2021/06/22 01:59:31;;;;;;;14.68;6.20;;;16.20;99.90;;;15.78;99.05;100760.81;4136524;28;20022;-67
2021/06/22 02:01:32;;;;;;;23.10;6.43;;;16.20;99.90;;;15.75;99.98;100766.50;4136447;28;20489;-67
2021/06/22 02:03:33;;;;;;;20.42;6.78;;;16.20;99.90;;;15.68;100.00;100762.97;4134990;28;20065;-67
2021/06/22 02:05:34;;;;;;;19.45;6.80;;;16.20;99.90;;;15.80;99.77;100753.50;4136094;28;20104;-67
2021/06/22 02:07:35;;;;;;;19.58;7.80;;;16.20;99.90;;;15.78;99.97;100758.97;4136334;28;20026;-67
2021/06/22 02:09:35;;;;;;;17.58;6.80;;;16.20;99.90;;;15.78;100.00;100751.00;4135901;28;20489;-67
2021/06/22 02:11:36;;;;;;;18.90;7.75;;;16.20;99.90;;;15.79;100.00;100749.16;4134930;28;20034;-67
2021/06/22 02:13:37;;;;;;;15.63;7.25;;;16.20;99.90;;;15.75;100.00;100751.38;4134848;28;20379;-67
2021/06/22 02:15:41;;;;;;;18.15;7.00;;;16.20;99.90;;;15.81;100.00;100755.94;4135062;28;20014;-67
2021/06/22 02:17:42;;;;;;;15.73;7.35;;;16.20;99.90;;;15.78;99.78;100742.19;4136191;28;20022;-67
2021/06/22 02:19:42;;;;;;;17.13;7.93;;;16.20;99.90;;;15.76;100.00;100745.06;4134904;28;20073;-67
2021/06/22 02:21:43;;;;;;;18.05;6.00;;;16.20;99.90;;;15.70;100.00;100732.53;4134833;28;20026;-67
2021/06/22 02:23:44;;;;;;;18.40;7.97;;;16.20;99.90;;;15.91;100.00;100758.28;4134888;28;20081;-67
2021/06/22 02:25:45;;;;;;;19.88;7.30;;;16.30;99.90;;;15.87;100.00;100749.88;4135740;28;20030;-67
2021/06/22 02:27:47;;;;;;;13.43;6.68;;;16.30;99.90;;;15.93;100.00;100748.28;4134974;28;20081;-67
2021/06/22 02:29:48;;;;;;;19.55;8.57;;;16.30;99.90;;;15.90;100.00;100741.50;4135825;28;20026;-67
2021/06/22 02:31:49;;;;;;;19.73;7.32;;;16.30;99.90;;;15.88;100.00;100750.69;4135937;28;20041;-67
2021/06/22 02:33:50;;;;;;;21.98;8.02;;;16.30;99.90;;;15.85;100.00;100740.44;4136001;28;20069;-67
2021/06/22 02:35:52;;;;;;;16.13;8.65;;;16.30;99.90;;;15.80;100.00;100748.97;4134673;28;20038;-67
2021/06/22 02:37:53;;;;;;;19.02;7.53;;;16.30;99.90;;;15.92;100.00;100749.28;4135720;28;20034;-67
2021/06/22 02:39:54;;;;;;;20.77;7.95;;;16.40;99.90;;;15.90;100.00;100749.50;4135381;28;20042;-67
2021/06/22 02:41:54;;;;;;;21.67;9.27;;;16.30;99.90;;;15.91;100.00;100752.97;4134727;28;20034;-67
2021/06/22 02:43:56;;;;;;;15.63;7.15;;;16.30;99.90;;;15.95;100.00;100748.91;4135355;28;20033;-67
2021/06/22 02:45:57;;;;;;;17.15;7.07;;;16.30;99.90;;;15.92;100.00;100751.94;4134377;28;20038;-67
2021/06/22 02:47:58;;;;;;;16.00;7.70;;;16.30;99.90;;;15.93;100.00;100745.63;4135854;28;20031;-67
2021/06/22 02:49:59;;;;;;;15.27;7.10;;;16.30;99.90;;;15.83;100.00;100758.44;4135835;28;20030;-67
2021/06/22 02:52:00;;;;;;;15.95;7.82;;;16.30;99.90;;;15.86;100.00;100758.84;4135675;28;20030;-67
2021/06/22 02:54:00;;;;;;;24.17;9.45;;;16.30;99.90;;;15.90;100.00;100767.28;4135393;28;20027;-67
2021/06/22 02:56:02;;;;;;;19.23;7.93;;;16.40;99.90;;;15.74;100.00;100759.56;4135778;28;20508;-67
2021/06/22 02:58:03;;;;;;;21.60;9.18;;;16.30;99.90;;;15.73;100.00;100761.41;4134545;28;20036;-67
2021/06/22 03:00:05;;;;;;;20.80;8.43;;;16.30;99.90;;;15.79;100.00;100765.97;4134451;28;20026;-67
2021/06/22 03:02:07;;;;;;;20.90;8.88;;;16.30;99.90;;;15.84;100.00;100762.72;4135605;28;20509;-67
2021/06/22 03:04:08;;;;;;;24.63;8.85;;;16.30;99.90;;;15.92;100.00;100763.41;4134465;28;20936;-67
2021/06/22 03:06:09;;;;;;;18.13;8.98;;;16.30;99.90;;;15.88;100.00;100764.00;4135730;28;20047;-67
2021/06/22 03:08:10;;;;;;;21.25;8.30;;;16.30;99.90;;;15.86;100.00;100768.69;4135641;28;20114;-67
2021/06/22 03:10:14;;;;;;;23.63;9.07;;;16.40;99.90;;;15.85;100.00;100767.88;4135301;28;20066;-67
2021/06/22 03:12:15;;;;;;;;;;;16.30;99.90;;;15.75;100.00;100762.03;4134597;28;20077;-67
2021/06/22 03:14:17;;;;;;;17.27;8.05;;;16.30;99.90;;;15.73;100.00;100768.53;4134505;28;19909;-67
2021/06/22 03:16:18;;;;;;;17.35;7.40;;;16.30;99.90;;;15.91;100.00;100777.75;4134452;28;20038;-67
2021/06/22 03:18:19;;;;;;;17.67;7.75;;;16.30;99.90;;;15.78;100.00;100768.78;4135537;28;20026;-67
2021/06/22 03:20:20;;;;;;;15.15;7.25;;;16.30;99.90;;;15.80;100.00;100772.09;4135376;28;20171;-67
2021/06/22 03:22:21;;;;;;;15.07;7.68;;;16.30;99.90;;;15.82;100.00;100773.56;4134327;28;20101;-67
2021/06/22 03:24:22;;;;;;;16.70;7.18;;;16.30;99.90;;;15.80;100.00;100777.44;4135328;28;20058;-66
2021/06/22 03:26:23;;;;;;;14.32;6.72;;;16.20;99.90;;;15.80;100.00;100775.56;4135555;28;20034;-67
2021/06/22 03:28:24;;;;;;;20.80;8.00;;;16.20;99.90;;;15.89;100.00;100774.44;4135481;28;20444;-67
2021/06/22 03:30:25;;;;;;;14.85;6.07;;;16.20;99.90;;;15.93;100.00;100774.88;4135455;28;20033;-67
2021/06/22 03:32:26;;;;;;;16.75;7.47;;;16.30;99.90;;;16.03;100.00;100775.41;4135211;28;20080;-67
2021/06/22 03:34:27;;;;;;;13.45;6.90;;;16.30;99.90;;;16.09;100.00;100769.31;4135498;28;20025;-67
2021/06/22 03:36:28;;;;;;;12.73;6.20;;;16.30;99.90;;;16.01;100.00;100772.09;4135227;28;20058;-67
2021/06/22 03:38:29;;;;;;;14.45;6.07;;;16.40;99.90;;;15.98;100.00;100778.63;4135574;28;20485;-67
2021/06/22 03:40:30;;;;;;;11.35;6.38;;;16.40;99.90;;;15.94;100.00;100771.22;4134881;28;20074;-67
2021/06/22 03:42:33;;;;;;;13.98;6.68;;;16.40;99.90;;;16.06;100.00;100788.31;4134101;28;20528;-67
2021/06/22 03:44:35;;;;;;;9.63;5.95;;;16.40;99.90;;;15.89;100.00;100784.25;4135234;28;20041;-67
2021/06/22 03:46:36;;;;;;;10.57;5.22;;;16.40;99.90;;;15.97;100.00;100790.28;4134331;28;20026;-67
2021/06/22 03:48:37;;;;;;;10.68;5.00;;;16.40;99.90;;;15.85;100.00;100790.97;4150399;28;20026;-67
2021/06/22 03:50:39;;;;;;;10.55;5.43;;;16.50;99.90;;;15.88;100.00;100795.91;4134158;28;20101;-67
2021/06/22 03:52:40;;;;;;;8.10;4.75;;;16.50;99.90;;;15.87;100.00;100802.25;4135115;28;20042;-67
2021/06/22 03:54:41;;;;;;;8.95;5.43;;;16.40;99.90;;;15.73;100.00;100803.94;4133889;28;20026;-67
2021/06/22 03:56:42;;;;;;;8.43;5.28;;;16.50;99.90;;;15.89;100.00;100803.69;4136352;28;20057;-67
2021/06/22 03:58:44;;;;;;;7.43;4.65;;;16.50;99.90;;;15.79;100.00;100805.84;4153237;28;20014;-67
2021/06/22 04:00:45;;;;;;;7.20;4.93;;;16.50;99.90;;;15.63;100.00;100816.72;4153019;28;20425;-67
2021/06/22 04:02:46;;;;;;;8.80;5.82;;;16.30;99.90;;;15.37;100.00;100817.19;4153346;28;20022;-67
2021/06/22 04:04:47;;;;;;;8.63;6.22;;;16.30;99.90;;;15.40;100.00;100806.19;4138284;28;20026;-67
2021/06/22 04:06:47;;;;;;;12.30;6.93;;;16.30;99.90;;;15.39;100.00;100809.84;4137009;28;20061;-67
2021/06/22 04:08:48;;;;;;;8.82;5.80;;;16.20;99.90;;;15.58;100.00;100815.63;4137883;28;20041;-67
2021/06/22 04:10:49;;;;;;;11.23;6.88;;;16.20;99.90;;;15.50;100.00;100816.56;4138226;28;20030;-67
2021/06/22 04:12:50;;;;;;;10.13;6.72;;;16.20;99.90;;;15.48;100.00;100818.56;4138236;28;20441;-67
2021/06/22 04:14:51;;;;;;;11.13;6.65;;;16.10;99.90;;;15.58;100.00;100819.13;4136978;28;20022;-67
2021/06/22 04:16:52;;;;;;;10.65;6.82;;;16.20;99.90;;;15.61;100.00;100823.22;4136760;28;20025;-67
2021/06/22 04:18:53;;;;;;;11.00;6.60;;;16.20;99.90;;;15.66;100.00;100823.47;4138150;28;20052;-67
2021/06/22 04:20:54;;;;;;;10.90;6.53;;;16.20;99.90;;;15.65;100.00;100820.00;4136918;28;20022;-67
2021/06/22 04:22:55;;;;;;;14.02;6.68;;;16.20;99.90;;;15.55;100.00;100826.63;4137915;28;20022;-67
2021/06/22 04:24:56;;;;;;;13.35;7.03;;;16.20;99.90;;;15.46;100.00;100824.06;4137497;28;20033;-67
2021/06/22 04:26:57;;;;;;;12.52;7.00;;;16.20;99.90;;;15.55;100.00;100822.16;4138006;28;20082;-67
2021/06/22 04:28:58;;;;;;;14.95;7.05;;;16.10;99.90;;;15.52;100.00;100827.84;4136775;28;20110;-67
2021/06/22 04:30:58;;;;;;;13.32;7.20;;;16.10;99.90;;;15.63;100.00;100829.19;4136768;28;20022;-67
2021/06/22 04:33:01;;;;;;;10.60;6.90;;;16.10;99.90;;;15.59;100.00;100828.72;4136497;28;20027;-67
2021/06/22 04:35:03;;;;;;;12.43;6.68;;;16.20;99.90;;;15.69;100.00;100839.06;4136715;28;20026;-67
2021/06/22 04:37:04;;;;;;;13.50;7.45;;;16.20;99.90;;;15.56;100.00;100831.75;4136635;28;20050;-67
2021/06/22 04:39:05;;;;;;;9.10;6.95;;;16.20;99.90;;;15.63;100.00;100835.31;4135999;28;20493;-67
2021/06/22 04:41:06;;;;;;;11.05;6.68;;;16.30;99.90;;;15.62;100.00;100835.53;4136257;28;20548;-67
2021/06/22 04:43:08;;;;;;;14.80;7.68;;;16.20;99.90;;;15.64;100.00;100834.31;4136344;28;20102;-67
2021/06/22 04:45:10;;;;;;;15.55;8.05;;;16.30;99.90;;;15.55;100.00;100837.28;4136371;28;20490;-67
2021/06/22 04:47:11;;;;;;;11.80;7.22;;;16.30;99.90;;;15.49;100.00;100838.84;4137563;28;20018;-67
2021/06/22 04:49:12;;;;;;;13.18;7.38;;;16.20;99.90;;;15.55;100.00;100832.78;4137406;28;20031;-67
2021/06/22 04:51:13;;;;;;;15.48;7.57;;;16.20;99.90;;;15.53;100.00;100832.13;4137490;28;20034;-67
2021/06/22 04:53:14;;;;;;;9.30;7.15;;;16.20;99.90;;;15.45;100.00;100822.41;4120208;28;20180;-67
2021/06/22 04:55:16;;;;;;;15.98;8.15;;;16.20;99.90;;;15.55;100.00;100832.78;4135945;28;20022;-67
2021/06/22 04:57:19;;;;;;;13.73;8.07;;;16.20;99.90;;;15.48;100.00;100838.00;4136170;28;20030;-67
2021/06/22 04:59:20;;;;;;;13.23;8.70;;;16.20;99.90;;;15.52;100.00;100846.44;4137542;28;20026;-67
2021/06/22 05:01:21;;;;;;;15.32;8.00;;;16.20;99.90;;;15.59;100.00;100836.69;4137468;28;20552;-67
2021/06/22 05:03:22;;;;;;;14.77;7.70;;;16.20;99.90;;;15.60;100.00;100845.50;4136244;28;20026;-67
2021/06/22 05:05:25;;;;;;;14.57;7.10;;;16.20;99.90;;;15.63;100.00;100851.28;4136110;28;20109;-67
2021/06/22 05:07:26;;;;;;;16.45;7.53;;;16.30;99.90;;;15.57;100.00;100849.38;4136840;28;20076;-67
2021/06/22 05:09:26;;;;;;;14.77;7.65;;;16.30;99.90;;;15.61;100.00;100855.13;4137097;28;20030;-67
2021/06/22 05:11:27;;;;;;;17.88;8.75;;;16.30;99.90;;;15.58;100.00;100858.16;4137334;28;20034;-67
2021/06/22 05:13:28;;;;;;;15.43;8.35;;;16.30;99.90;;;15.66;100.00;100858.06;4137190;28;20512;-67
2021/06/22 05:15:29;;;;;;;14.52;8.02;;;16.30;99.90;;;15.63;100.00;100861.09;4137305;28;20022;-67
2021/06/22 05:17:30;;;;;;;12.60;8.40;;;16.30;99.90;;;15.63;100.00;100851.28;4137147;28;20564;-67
2021/06/22 05:19:31;;;;;;;15.25;8.15;;;16.40;99.90;;;15.71;100.00;100859.13;4135953;28;20030;-66
2021/06/22 05:21:32;;;;;;;14.93;8.15;;;16.40;99.90;;;15.67;100.00;100870.34;4137060;28;20030;-67
2021/06/22 05:23:33;;;;;;;17.63;7.97;;;16.40;99.90;;;15.71;100.00;100871.63;4135781;28;20054;-67
2021/06/22 05:25:34;;;;;;;14.70;8.68;;;16.40;99.90;;;15.67;100.00;100871.19;4136704;28;20057;-66
2021/06/22 05:27:35;;;;;;;14.55;7.78;;;16.40;99.90;;;15.74;100.00;100857.97;4135678;28;20034;-67
2021/06/22 05:29:36;;;;;;;17.38;8.18;;;16.40;99.90;;;15.69;100.00;100868.31;4135649;28;20030;-67
2021/06/22 05:31:37;;;;;;;16.10;8.05;;;16.40;99.90;;;15.81;100.00;100880.13;4135495;28;20136;-67
2021/06/22 05:33:38;;;;;;;16.65;7.00;;;16.40;99.90;;;15.82;100.00;100884.44;4136982;28;20504;-67
2021/06/22 05:35:39;;;;;;;13.52;7.00;;;16.40;99.90;;;15.81;100.00;100883.63;4136861;28;20029;-67
2021/06/22 05:37:40;;;;;;;12.02;7.10;;;16.50;99.90;;;15.80;100.00;100875.84;4135571;28;20093;-67
2021/06/22 05:39:41;;;;;;;9.15;5.55;;;16.50;99.90;;;15.75;100.00;100884.38;4134930;28;20049;-67
2021/06/22 05:41:42;;;;;;;11.25;4.90;;;16.50;99.90;;;15.60;100.00;100885.38;4136862;28;20398;-67
2021/06/22 05:43:43;;;;;;;8.55;4.72;;;16.50;99.90;;;15.39;100.00;100894.06;4135508;28;20026;-67
2021/06/22 05:45:44;;;;;;;9.70;4.85;;;16.40;99.90;;;15.60;100.00;100896.03;4135578;28;20088;-67
2021/06/22 05:47:45;;;;;;;5.68;4.00;;;16.40;99.90;;;15.54;100.00;100897.59;4151430;28;20040;-67
2021/06/22 05:49:46;;;;;;;7.25;3.58;;;16.40;99.90;;;15.39;100.00;100904.72;4135478;28;20030;-67
2021/06/22 05:51:47;;;;;;;5.72;3.45;;;16.40;99.90;;;15.45;100.00;100904.81;4136611;28;20029;-67
2021/06/22 05:53:48;;;;;;;5.28;3.10;;;16.30;99.90;;;15.33;100.00;100905.44;4136408;28;20031;-67
2021/06/22 05:55:49;;;;;;;4.78;3.40;;;16.30;99.90;;;15.33;100.00;100906.28;4136355;28;20022;-67
2021/06/22 05:57:55;;;;;;;5.03;3.13;;;16.20;99.90;;;15.13;100.00;100886.56;4136578;28;20030;-67
2021/06/22 05:59:56;;;;;;;6.30;4.20;;;16.20;99.90;;;15.03;100.00;100899.28;4136429;28;20371;-67
2021/06/22 06:01:57;;;;;;;7.47;3.00;;;16.10;99.90;;;14.88;100.00;100912.53;4135249;28;20069;-66
2021/06/22 06:03:58;;;;;;;4.78;3.03;;;16.00;99.90;;;14.81;100.00;100913.44;4136416;28;20434;-67
2021/06/22 06:06:02;;;;;;;7.32;3.33;;;15.90;99.90;;;14.80;100.00;100909.94;4136603;28;20114;-66
2021/06/22 06:08:03;;;;;;;7.00;3.20;;;15.90;99.90;;;14.99;100.00;100905.97;4136270;28;20045;-67
2021/06/22 06:10:06;;;;;;;17.33;4.30;;;15.80;99.90;;;14.90;100.00;100907.06;4136104;28;20038;-67
2021/06/22 06:12:07;;;;;;;6.97;3.38;;;15.80;99.90;;;14.90;100.00;100915.03;4136272;28;20026;-67
2021/06/22 06:14:09;;;;;;;7.78;3.80;;;15.80;99.90;;;14.87;100.00;100915.38;4136434;28;20018;-67
2021/06/22 06:16:10;;;;;;;6.80;3.88;;;15.80;99.90;;;15.01;100.00;100911.09;4136265;28;20520;-67
2021/06/22 06:18:11;;;;;;;5.75;3.40;;;15.80;99.90;;;14.93;100.00;100934.06;4134844;28;20057;-67
2021/06/22 06:20:13;;;;;;;6.03;3.10;;;15.80;99.90;;;14.84;100.00;100921.84;4135267;28;20061;-67
2021/06/22 06:22:14;;;;;;;9.73;4.00;;;15.80;99.90;;;15.00;100.00;100923.53;4135117;28;20049;-67
2021/06/22 06:24:15;;;;;;;8.68;3.92;;;15.80;99.90;;;14.96;100.00;100924.94;4150620;28;20022;-67
2021/06/22 06:26:19;;;;;;;7.40;3.60;;;15.80;99.90;;;14.86;100.00;100930.50;4131750;28;20080;-67
2021/06/22 06:28:25;;;;;;;7.20;4.18;;;15.80;99.90;;;15.06;100.00;100932.63;4134862;28;20034;-67
2021/06/22 06:30:29;;;;;;;6.88;3.85;;;15.80;99.90;;;15.06;100.00;100935.28;4135010;28;20553;-67
2021/06/22 06:32:30;;;;;;;11.30;3.65;;;15.90;99.90;;;15.05;100.00;100931.81;4134736;28;20038;-67
2021/06/22 06:34:31;;;;;;;11.13;4.60;;;15.80;99.90;;;14.88;100.00;100939.09;4135990;28;20371;-67
2021/06/22 06:36:32;;;;;;;6.85;3.30;;;15.90;99.90;;;14.91;100.00;100937.91;4136020;28;20058;-67
2021/06/22 06:38:33;;;;;;;8.48;4.40;;;15.80;99.90;;;14.75;100.00;100944.19;4135877;28;20026;-67
2021/06/22 06:40:35;;;;;;;6.75;3.90;;;15.80;99.90;;;14.46;100.00;100932.59;4135385;28;20096;-67
2021/06/22 06:42:39;;;;;;;6.47;3.70;;;15.70;99.90;;;14.63;100.00;100953.56;4135800;28;20034;-67
2021/06/22 06:44:40;;;;;;;;;;;15.70;99.90;;;14.67;100.00;100946.06;4123378;28;20040;-67
2021/06/22 06:46:41;;;;;;;7.05;3.85;;;15.60;99.90;;;14.68;100.00;100955.69;4134864;28;19921;-67
2021/06/22 06:48:42;;;;;;;7.72;4.40;;;15.60;99.90;;;14.61;100.00;100960.03;4135934;28;20062;-67
2021/06/22 06:50:44;;;;;;;9.40;4.28;;;15.70;99.90;;;14.54;100.00;100959.13;4135748;28;20031;-67
2021/06/22 06:52:45;;;;;;;8.15;3.90;;;15.60;99.90;;;14.46;100.00;100959.16;4135656;28;20121;-67
2021/06/22 06:54:46;;;;;;;7.25;4.55;;;15.60;99.90;;;14.65;100.00;100964.00;4134277;28;20401;-67
2021/06/22 06:56:47;;;;;;;8.70;4.53;;;15.60;99.90;;;14.62;100.00;100964.34;4150732;28;20030;-67
2021/06/22 06:58:48;;;;;;;9.13;4.68;;;15.60;99.90;;;14.59;100.00;100967.38;4134533;28;20033;-67
2021/06/22 07:00:49;;;;;;;7.75;4.40;;;15.60;99.90;;;14.62;100.00;100981.13;4135503;28;20027;-67
2021/06/22 07:02:50;;;;;;;9.73;4.68;;;15.50;99.90;;;14.67;100.00;100977.91;4135724;28;20453;-67
2021/06/22 07:04:51;;;;;;;6.43;3.97;;;15.60;99.90;;;14.77;100.00;100981.19;4134541;28;20468;-67
2021/06/22 07:06:52;;;;;;;11.65;4.05;;;15.60;99.90;;;14.72;100.00;100987.03;4135714;28;20033;-67
2021/06/22 07:08:53;;;;;;;10.23;3.83;;;15.60;99.90;;;14.72;100.00;100997.66;4135155;28;20037;-67
2021/06/22 07:10:54;;;;;;;9.10;4.30;;;15.60;99.90;;;14.77;100.00;100995.28;4135653;28;20073;-67
2021/06/22 07:12:58;;;;;;;8.60;4.05;;;15.60;99.90;;;14.71;100.00;101000.47;4135620;28;20399;-67
2021/06/22 07:14:58;;;;;;;7.03;3.55;;;15.60;99.90;;;14.74;100.00;100993.00;4135630;28;20482;-67
2021/06/22 07:16:59;;;;;;;8.82;3.88;;;15.60;99.90;;;14.82;100.00;101000.06;4134224;28;20027;-67
2021/06/22 07:19:00;;;;;;;7.18;4.03;;;15.70;99.90;;;14.90;100.00;100995.50;4135577;28;20030;-67
2021/06/22 07:21:01;;;;;;;11.57;3.95;;;15.70;99.90;;;14.74;100.00;101008.09;4134381;28;20031;-67
2021/06/22 07:23:03;;;;;;;10.85;4.43;;;15.80;99.90;;;14.51;100.00;100997.47;4150502;28;20053;-67
2021/06/22 07:25:05;;;;;;;5.60;3.65;;;15.70;99.90;;;14.35;100.00;101011.66;4133762;28;20027;-67
2021/06/22 07:27:06;;;;;;;10.10;4.15;;;15.60;99.90;;;14.61;100.00;101005.19;4134393;28;20536;-67
2021/06/22 07:29:07;;;;;;;10.07;4.22;;;15.60;99.90;;;14.70;100.00;100993.50;4134035;28;20117;-67
2021/06/22 07:31:10;;;;;;;6.55;3.42;;;15.70;99.90;;;14.86;100.00;101009.34;4135641;28;20029;-67
2021/06/22 07:33:11;;;;;;;7.97;3.50;;;15.80;99.90;;;14.89;100.00;101012.47;4138549;28;20118;-67
2021/06/22 07:35:12;;;;;;;5.45;3.22;;;15.90;99.90;;;14.85;100.00;101024.44;4138640;28;20106;-67
2021/06/22 07:37:13;;;;;;;9.20;3.90;;;15.90;99.90;;;14.69;100.00;101013.13;4138494;28;20034;-67
2021/06/22 07:39:14;;;;;;;9.80;3.92;;;15.80;99.90;;;14.87;100.00;101016.31;4138246;28;20024;-67
2021/06/22 07:41:17;;;;;;;8.25;3.10;;;15.90;99.90;;;14.83;100.00;101005.22;4138173;28;20046;-67
2021/06/22 07:43:18;;;;;;;5.35;2.92;;;15.90;99.90;;;14.63;100.00;101025.28;4137273;28;20106;-67
2021/06/22 07:45:20;;;;;;;6.30;3.10;;;15.80;99.90;;;14.70;100.00;101017.41;4138532;28;20096;-67
2021/06/22 07:47:21;;;;;;;6.68;2.53;;;15.80;99.90;;;14.79;100.00;101019.00;4137285;28;20069;-67
2021/06/22 07:49:22;;;;;;;9.38;3.00;;;15.80;99.90;;;14.62;100.00;101023.59;4138187;28;20030;-67
2021/06/22 07:51:23;;;;;;;5.80;2.67;;;15.80;99.90;;;14.71;99.98;101035.84;4137185;28;20059;-67
2021/06/22 07:53:24;;;;;;;6.50;2.70;;;15.80;99.90;;;14.52;100.00;101027.47;4138344;28;20086;-67
2021/06/22 07:55:25;;;;;;;5.47;2.35;;;15.80;99.90;;;14.71;100.00;101035.84;4136747;28;20498;-67
2021/06/22 07:57:26;;;;;;;5.47;2.60;;;15.80;99.90;;;14.94;100.00;101027.84;4138208;28;20045;-66
2021/06/22 07:59:27;;;;;;;3.22;1.73;;;15.80;99.90;;;14.96;98.92;101036.50;4137020;28;20058;-67
2021/06/22 08:01:27;;;;;;;5.20;2.58;;;15.90;99.90;;;14.53;99.94;101024.66;4136958;28;20030;-67
2021/06/22 08:03:28;;;;;;;3.67;1.80;;;15.90;99.90;;;14.55;100.00;101027.13;4153121;28;20057;-67
2021/06/22 08:05:29;;;;;;;7.35;2.67;;;15.80;99.90;;;14.40;99.89;101019.91;4136828;28;20112;-67
2021/06/22 08:07:30;;;;;;;6.18;2.22;;;15.70;99.90;;;14.49;100.00;101028.66;4137043;28;20034;-67
2021/06/22 08:09:31;;;;;;;10.32;3.13;;;15.70;99.90;;;14.76;100.00;101035.28;4136711;28;20058;-67
2021/06/22 08:11:32;;;;;;;4.97;2.45;;;15.70;99.90;;;14.90;100.00;101042.53;4138043;28;20569;-67
2021/06/22 08:13:33;;;;;;;7.10;2.88;;;15.70;99.90;;;14.47;100.00;101030.66;4137971;28;20027;-67
2021/06/22 08:15:36;;;;;;;5.18;1.80;;;15.70;99.90;;;14.55;100.00;101037.72;4137982;28;20028;-67
2021/06/22 08:17:37;;;;;;;2.67;1.88;;;15.70;99.90;;;14.60;100.00;101038.88;4138002;28;20026;-67
2021/06/22 08:19:37;;;;;;;4.82;1.65;;;15.70;99.90;;;14.68;100.00;101040.66;4137970;28;20034;-67
2021/06/22 08:21:39;;;;;;;3.25;1.73;;;15.70;99.90;;;14.72;99.71;101039.31;4137822;28;20062;-67